sensor_id;sensor_type;location;lat;lon;timestamp;P1;durP1;ratioP1;P2;durP2;ratioP2
52564;SDS011;38460;53.106;7.004;2023-11-21T00:00:49;16.90;;;7.50;;
52564;SDS011;38460;53.106;7.004;2023-11-21T00:03:14;17.20;;;7.43;;
52564;SDS011;38460;53.106;7.004;2023-11-21T00:05:40;17.15;;;7.57;;
52564;SDS011;38460;53.106;7.004;2023-11-21T00:08:06;16.88;;;7.85;;
52564;SDS011;38460;53.106;7.004;2023-11-21T00:10:33;16.48;;;7.47;;
52564;SDS011;38460;53.106;7.004;2023-11-21T00:12:59;20.10;;;7.93;;
52564;SDS011;38460;53.106;7.004;2023-11-21T00:15:27;17.80;;;7.40;;
52564;SDS011;38460;53.106;7.004;2023-11-21T00:17:52;21.45;;;9.18;;
52564;SDS011;38460;53.106;7.004;2023-11-21T00:20:18;20.35;;;8.18;;
52564;SDS011;38460;53.106;7.004;2023-11-21T00:22:44;25.50;;;8.88;;
52564;SDS011;38460;53.106;7.004;2023-11-21T00:25:12;21.73;;;9.43;;
52564;SDS011;38460;53.106;7.004;2023-11-21T00:27:40;20.77;;;10.45;;
52564;SDS011;38460;53.106;7.004;2023-11-21T00:30:06;18.58;;;9.02;;
52564;SDS011;38460;53.106;7.004;2023-11-21T00:32:35;18.67;;;9.27;;
52564;SDS011;38460;53.106;7.004;2023-11-21T00:35:01;18.38;;;8.93;;
52564;SDS011;38460;53.106;7.004;2023-11-21T00:37:27;20.45;;;9.18;;
52564;SDS011;38460;53.106;7.004;2023-11-21T00:39:52;23.70;;;11.18;;
52564;SDS011;38460;53.106;7.004;2023-11-21T00:42:18;25.05;;;10.98;;
52564;SDS011;38460;53.106;7.004;2023-11-21T00:44:44;25.63;;;11.10;;
52564;SDS011;38460;53.106;7.004;2023-11-21T00:47:10;22.35;;;10.75;;
52564;SDS011;38460;53.106;7.004;2023-11-21T00:49:36;25.65;;;10.95;;
52564;SDS011;38460;53.106;7.004;2023-11-21T00:52:04;27.05;;;11.25;;
52564;SDS011;38460;53.106;7.004;2023-11-21T00:54:30;23.77;;;11.32;;
52564;SDS011;38460;53.106;7.004;2023-11-21T00:56:55;26.00;;;12.85;;
52564;SDS011;38460;53.106;7.004;2023-11-21T00:59:22;25.85;;;12.57;;
52564;SDS011;38460;53.106;7.004;2023-11-21T01:01:48;25.60;;;12.85;;
52564;SDS011;38460;53.106;7.004;2023-11-21T01:04:14;33.33;;;11.98;;
52564;SDS011;38460;53.106;7.004;2023-11-21T01:06:39;27.52;;;12.55;;
52564;SDS011;38460;53.106;7.004;2023-11-21T01:09:05;26.17;;;12.45;;
52564;SDS011;38460;53.106;7.004;2023-11-21T01:11:34;25.70;;;13.10;;
52564;SDS011;38460;53.106;7.004;2023-11-21T01:14:02;29.70;;;12.57;;
52564;SDS011;38460;53.106;7.004;2023-11-21T01:16:29;26.00;;;12.95;;
52564;SDS011;38460;53.106;7.004;2023-11-21T01:18:57;26.77;;;12.65;;
52564;SDS011;38460;53.106;7.004;2023-11-21T01:21:24;25.95;;;12.70;;
52564;SDS011;38460;53.106;7.004;2023-11-21T01:23:50;30.13;;;13.65;;
52564;SDS011;38460;53.106;7.004;2023-11-21T01:26:16;22.50;;;11.52;;
52564;SDS011;38460;53.106;7.004;2023-11-21T01:28:41;33.60;;;13.85;;
52564;SDS011;38460;53.106;7.004;2023-11-21T01:31:07;29.15;;;12.63;;
52564;SDS011;38460;53.106;7.004;2023-11-21T01:33:33;31.48;;;14.13;;
52564;SDS011;38460;53.106;7.004;2023-11-21T01:35:58;26.83;;;13.98;;
52564;SDS011;38460;53.106;7.004;2023-11-21T01:38:25;25.77;;;14.55;;
52564;SDS011;38460;53.106;7.004;2023-11-21T01:40:51;23.83;;;12.13;;
52564;SDS011;38460;53.106;7.004;2023-11-21T01:43:16;27.63;;;12.15;;
52564;SDS011;38460;53.106;7.004;2023-11-21T01:45:42;28.23;;;12.50;;
52564;SDS011;38460;53.106;7.004;2023-11-21T01:48:10;28.92;;;13.38;;
52564;SDS011;38460;53.106;7.004;2023-11-21T01:50:36;27.98;;;13.43;;
52564;SDS011;38460;53.106;7.004;2023-11-21T01:53:01;26.15;;;13.38;;
52564;SDS011;38460;53.106;7.004;2023-11-21T01:55:28;30.95;;;12.90;;
52564;SDS011;38460;53.106;7.004;2023-11-21T01:57:58;28.55;;;13.30;;
52564;SDS011;38460;53.106;7.004;2023-11-21T02:00:23;25.98;;;13.50;;
52564;SDS011;38460;53.106;7.004;2023-11-21T02:02:51;29.73;;;12.93;;
52564;SDS011;38460;53.106;7.004;2023-11-21T02:05:17;33.28;;;15.13;;
52564;SDS011;38460;53.106;7.004;2023-11-21T02:07:43;28.23;;;12.63;;
52564;SDS011;38460;53.106;7.004;2023-11-21T02:10:13;31.70;;;14.70;;
52564;SDS011;38460;53.106;7.004;2023-11-21T02:12:43;30.30;;;12.57;;
52564;SDS011;38460;53.106;7.004;2023-11-21T02:15:12;31.25;;;14.15;;
52564;SDS011;38460;53.106;7.004;2023-11-21T02:17:51;30.70;;;13.35;;
52564;SDS011;38460;53.106;7.004;2023-11-21T02:20:18;25.02;;;13.48;;
52564;SDS011;38460;53.106;7.004;2023-11-21T02:22:49;26.15;;;12.23;;
52564;SDS011;38460;53.106;7.004;2023-11-21T02:25:21;31.15;;;14.40;;
52564;SDS011;38460;53.106;7.004;2023-11-21T02:27:47;25.40;;;13.65;;
52564;SDS011;38460;53.106;7.004;2023-11-21T02:30:14;30.33;;;13.68;;
52564;SDS011;38460;53.106;7.004;2023-11-21T02:32:41;29.25;;;13.27;;
52564;SDS011;38460;53.106;7.004;2023-11-21T02:35:08;28.58;;;13.50;;
52564;SDS011;38460;53.106;7.004;2023-11-21T02:37:34;29.38;;;13.70;;
52564;SDS011;38460;53.106;7.004;2023-11-21T02:40:00;30.75;;;13.70;;
52564;SDS011;38460;53.106;7.004;2023-11-21T02:42:29;28.90;;;13.63;;
52564;SDS011;38460;53.106;7.004;2023-11-21T02:44:55;35.65;;;16.98;;
52564;SDS011;38460;53.106;7.004;2023-11-21T02:47:22;28.75;;;14.65;;
52564;SDS011;38460;53.106;7.004;2023-11-21T02:49:48;29.42;;;13.50;;
52564;SDS011;38460;53.106;7.004;2023-11-21T02:52:14;37.33;;;15.15;;
52564;SDS011;38460;53.106;7.004;2023-11-21T02:54:41;32.22;;;14.93;;
52564;SDS011;38460;53.106;7.004;2023-11-21T02:57:07;29.35;;;15.32;;
52564;SDS011;38460;53.106;7.004;2023-11-21T02:59:33;30.17;;;15.05;;
52564;SDS011;38460;53.106;7.004;2023-11-21T03:02:00;31.77;;;14.90;;
52564;SDS011;38460;53.106;7.004;2023-11-21T03:04:25;33.33;;;15.38;;
52564;SDS011;38460;53.106;7.004;2023-11-21T03:06:51;28.70;;;15.13;;
52564;SDS011;38460;53.106;7.004;2023-11-21T03:09:17;32.10;;;15.13;;
52564;SDS011;38460;53.106;7.004;2023-11-21T03:11:42;36.22;;;15.40;;
52564;SDS011;38460;53.106;7.004;2023-11-21T03:14:08;23.83;;;12.93;;
52564;SDS011;38460;53.106;7.004;2023-11-21T03:16:34;27.55;;;14.52;;
52564;SDS011;38460;53.106;7.004;2023-11-21T03:19:00;30.00;;;15.02;;
52564;SDS011;38460;53.106;7.004;2023-11-21T03:21:26;41.78;;;17.92;;
52564;SDS011;38460;53.106;7.004;2023-11-21T03:23:51;26.75;;;13.48;;
52564;SDS011;38460;53.106;7.004;2023-11-21T03:26:18;45.58;;;19.48;;
52564;SDS011;38460;53.106;7.004;2023-11-21T03:28:43;40.42;;;17.40;;
52564;SDS011;38460;53.106;7.004;2023-11-21T03:31:09;35.97;;;17.58;;
52564;SDS011;38460;53.106;7.004;2023-11-21T03:33:35;35.47;;;17.02;;
52564;SDS011;38460;53.106;7.004;2023-11-21T03:36:01;38.03;;;17.52;;
52564;SDS011;38460;53.106;7.004;2023-11-21T03:38:28;33.05;;;15.52;;
52564;SDS011;38460;53.106;7.004;2023-11-21T03:40:54;47.13;;;19.42;;
52564;SDS011;38460;53.106;7.004;2023-11-21T03:43:20;35.45;;;16.98;;
52564;SDS011;38460;53.106;7.004;2023-11-21T03:45:46;36.20;;;16.27;;
52564;SDS011;38460;53.106;7.004;2023-11-21T03:48:12;39.00;;;19.20;;
52564;SDS011;38460;53.106;7.004;2023-11-21T03:50:38;40.78;;;17.70;;
52564;SDS011;38460;53.106;7.004;2023-11-21T03:53:04;35.85;;;18.05;;
52564;SDS011;38460;53.106;7.004;2023-11-21T03:55:29;33.95;;;17.92;;
52564;SDS011;38460;53.106;7.004;2023-11-21T03:57:57;40.22;;;18.90;;
52564;SDS011;38460;53.106;7.004;2023-11-21T04:00:23;44.70;;;18.90;;
52564;SDS011;38460;53.106;7.004;2023-11-21T04:02:49;40.70;;;18.65;;
52564;SDS011;38460;53.106;7.004;2023-11-21T04:05:16;32.30;;;16.63;;
52564;SDS011;38460;53.106;7.004;2023-11-21T04:07:42;40.97;;;18.80;;
52564;SDS011;38460;53.106;7.004;2023-11-21T04:10:08;40.90;;;18.73;;
52564;SDS011;38460;53.106;7.004;2023-11-21T04:12:37;43.30;;;19.13;;
52564;SDS011;38460;53.106;7.004;2023-11-21T04:15:03;37.75;;;16.88;;
52564;SDS011;38460;53.106;7.004;2023-11-21T04:17:29;44.15;;;19.83;;
52564;SDS011;38460;53.106;7.004;2023-11-21T04:19:55;50.75;;;20.13;;
52564;SDS011;38460;53.106;7.004;2023-11-21T04:22:21;34.35;;;18.05;;
52564;SDS011;38460;53.106;7.004;2023-11-21T04:24:47;32.38;;;15.93;;
52564;SDS011;38460;53.106;7.004;2023-11-21T04:27:12;36.05;;;17.15;;
52564;SDS011;38460;53.106;7.004;2023-11-21T04:29:39;38.80;;;17.70;;
52564;SDS011;38460;53.106;7.004;2023-11-21T04:32:06;35.20;;;17.13;;
52564;SDS011;38460;53.106;7.004;2023-11-21T04:34:33;35.15;;;16.73;;
52564;SDS011;38460;53.106;7.004;2023-11-21T04:36:59;36.22;;;18.02;;
52564;SDS011;38460;53.106;7.004;2023-11-21T04:39:25;43.13;;;19.17;;
52564;SDS011;38460;53.106;7.004;2023-11-21T04:41:51;47.42;;;19.42;;
52564;SDS011;38460;53.106;7.004;2023-11-21T04:44:17;48.42;;;20.05;;
52564;SDS011;38460;53.106;7.004;2023-11-21T04:46:43;46.92;;;19.10;;
52564;SDS011;38460;53.106;7.004;2023-11-21T04:49:09;57.42;;;21.30;;
52564;SDS011;38460;53.106;7.004;2023-11-21T04:51:36;54.65;;;20.80;;
52564;SDS011;38460;53.106;7.004;2023-11-21T04:54:01;53.95;;;20.75;;
52564;SDS011;38460;53.106;7.004;2023-11-21T04:56:27;56.28;;;22.05;;
52564;SDS011;38460;53.106;7.004;2023-11-21T04:58:54;49.15;;;19.63;;
52564;SDS011;38460;53.106;7.004;2023-11-21T05:01:20;55.60;;;20.33;;
52564;SDS011;38460;53.106;7.004;2023-11-21T05:03:46;41.22;;;18.23;;
52564;SDS011;38460;53.106;7.004;2023-11-21T05:06:12;48.58;;;19.60;;
52564;SDS011;38460;53.106;7.004;2023-11-21T05:08:39;42.20;;;18.80;;
52564;SDS011;38460;53.106;7.004;2023-11-21T05:11:05;43.80;;;18.33;;
52564;SDS011;38460;53.106;7.004;2023-11-21T05:13:33;46.55;;;20.23;;
52564;SDS011;38460;53.106;7.004;2023-11-21T05:15:59;43.42;;;17.70;;
52564;SDS011;38460;53.106;7.004;2023-11-21T05:18:25;42.78;;;17.33;;
52564;SDS011;38460;53.106;7.004;2023-11-21T05:20:55;50.72;;;19.10;;
52564;SDS011;38460;53.106;7.004;2023-11-21T05:23:21;34.40;;;15.88;;
52564;SDS011;38460;53.106;7.004;2023-11-21T05:25:47;42.10;;;18.10;;
52564;SDS011;38460;53.106;7.004;2023-11-21T05:28:13;32.17;;;14.95;;
52564;SDS011;38460;53.106;7.004;2023-11-21T05:30:38;35.08;;;15.23;;
52564;SDS011;38460;53.106;7.004;2023-11-21T05:33:05;29.80;;;16.13;;
52564;SDS011;38460;53.106;7.004;2023-11-21T05:35:30;30.67;;;13.95;;
52564;SDS011;38460;53.106;7.004;2023-11-21T05:37:56;32.33;;;14.30;;
52564;SDS011;38460;53.106;7.004;2023-11-21T05:40:22;24.50;;;12.95;;
52564;SDS011;38460;53.106;7.004;2023-11-21T05:42:48;30.05;;;13.50;;
52564;SDS011;38460;53.106;7.004;2023-11-21T05:45:14;30.80;;;13.80;;
52564;SDS011;38460;53.106;7.004;2023-11-21T05:47:44;31.33;;;14.00;;
52564;SDS011;38460;53.106;7.004;2023-11-21T05:50:11;27.80;;;13.05;;
52564;SDS011;38460;53.106;7.004;2023-11-21T05:52:39;27.08;;;13.32;;
52564;SDS011;38460;53.106;7.004;2023-11-21T05:55:06;23.45;;;12.13;;
52564;SDS011;38460;53.106;7.004;2023-11-21T05:57:36;29.83;;;14.43;;
52564;SDS011;38460;53.106;7.004;2023-11-21T06:00:06;34.58;;;13.00;;
52564;SDS011;38460;53.106;7.004;2023-11-21T06:02:41;27.92;;;12.80;;
52564;SDS011;38460;53.106;7.004;2023-11-21T06:05:07;25.48;;;13.20;;
52564;SDS011;38460;53.106;7.004;2023-11-21T06:07:33;30.60;;;15.27;;
52564;SDS011;38460;53.106;7.004;2023-11-21T06:10:01;27.05;;;12.48;;
52564;SDS011;38460;53.106;7.004;2023-11-21T06:12:36;23.73;;;12.13;;
52564;SDS011;38460;53.106;7.004;2023-11-21T06:15:04;25.52;;;13.35;;
52564;SDS011;38460;53.106;7.004;2023-11-21T06:17:36;26.92;;;13.20;;
52564;SDS011;38460;53.106;7.004;2023-11-21T06:20:03;27.63;;;14.15;;
52564;SDS011;38460;53.106;7.004;2023-11-21T06:22:37;30.83;;;14.23;;
52564;SDS011;38460;53.106;7.004;2023-11-21T06:25:04;33.92;;;16.35;;
52564;SDS011;38460;53.106;7.004;2023-11-21T06:27:46;36.22;;;15.48;;
52564;SDS011;38460;53.106;7.004;2023-11-21T06:30:13;39.30;;;17.55;;
52564;SDS011;38460;53.106;7.004;2023-11-21T06:32:40;43.17;;;18.42;;
52564;SDS011;38460;53.106;7.004;2023-11-21T06:35:07;46.45;;;19.40;;
52564;SDS011;38460;53.106;7.004;2023-11-21T06:37:36;47.80;;;18.65;;
52564;SDS011;38460;53.106;7.004;2023-11-21T06:40:02;53.95;;;21.23;;
52564;SDS011;38460;53.106;7.004;2023-11-21T06:42:31;65.38;;;22.75;;
52564;SDS011;38460;53.106;7.004;2023-11-21T06:44:58;54.60;;;20.63;;
52564;SDS011;38460;53.106;7.004;2023-11-21T06:47:24;58.10;;;20.88;;
52564;SDS011;38460;53.106;7.004;2023-11-21T06:49:51;46.40;;;19.92;;
52564;SDS011;38460;53.106;7.004;2023-11-21T06:52:17;56.83;;;21.80;;
52564;SDS011;38460;53.106;7.004;2023-11-21T06:54:44;51.50;;;21.52;;
52564;SDS011;38460;53.106;7.004;2023-11-21T06:57:10;44.83;;;21.45;;
52564;SDS011;38460;53.106;7.004;2023-11-21T06:59:36;43.30;;;19.13;;
52564;SDS011;38460;53.106;7.004;2023-11-21T07:02:02;43.95;;;19.33;;
52564;SDS011;38460;53.106;7.004;2023-11-21T07:04:30;48.78;;;20.08;;
52564;SDS011;38460;53.106;7.004;2023-11-21T07:06:58;49.97;;;20.65;;
52564;SDS011;38460;53.106;7.004;2023-11-21T07:09:24;42.95;;;21.00;;
52564;SDS011;38460;53.106;7.004;2023-11-21T07:11:53;52.60;;;22.38;;
52564;SDS011;38460;53.106;7.004;2023-11-21T07:14:20;41.47;;;19.58;;
52564;SDS011;38460;53.106;7.004;2023-11-21T07:16:46;54.08;;;23.00;;
52564;SDS011;38460;53.106;7.004;2023-11-21T07:19:12;47.13;;;22.58;;
52564;SDS011;38460;53.106;7.004;2023-11-21T07:21:38;52.67;;;22.63;;
52564;SDS011;38460;53.106;7.004;2023-11-21T07:24:05;48.22;;;22.27;;
52564;SDS011;38460;53.106;7.004;2023-11-21T07:26:32;42.47;;;20.15;;
52564;SDS011;38460;53.106;7.004;2023-11-21T07:28:59;42.22;;;18.83;;
52564;SDS011;38460;53.106;7.004;2023-11-21T07:31:25;39.10;;;18.90;;
52564;SDS011;38460;53.106;7.004;2023-11-21T07:33:51;33.88;;;17.80;;
52564;SDS011;38460;53.106;7.004;2023-11-21T07:36:18;34.47;;;17.42;;
52564;SDS011;38460;53.106;7.004;2023-11-21T07:38:46;37.88;;;17.85;;
52564;SDS011;38460;53.106;7.004;2023-11-21T07:41:12;30.80;;;16.77;;
52564;SDS011;38460;53.106;7.004;2023-11-21T07:43:41;33.05;;;17.73;;
52564;SDS011;38460;53.106;7.004;2023-11-21T07:46:07;33.42;;;17.67;;
52564;SDS011;38460;53.106;7.004;2023-11-21T07:48:36;32.90;;;18.10;;
52564;SDS011;38460;53.106;7.004;2023-11-21T07:51:02;32.42;;;16.38;;
52564;SDS011;38460;53.106;7.004;2023-11-21T07:53:32;27.17;;;16.50;;
52564;SDS011;38460;53.106;7.004;2023-11-21T07:56:04;27.35;;;15.80;;
52564;SDS011;38460;53.106;7.004;2023-11-21T07:58:34;27.10;;;15.43;;
52564;SDS011;38460;53.106;7.004;2023-11-21T08:01:00;31.27;;;15.25;;
52564;SDS011;38460;53.106;7.004;2023-11-21T08:03:27;25.67;;;16.40;;
52564;SDS011;38460;53.106;7.004;2023-11-21T08:05:55;25.98;;;16.38;;
52564;SDS011;38460;53.106;7.004;2023-11-21T08:08:21;25.20;;;16.00;;
52564;SDS011;38460;53.106;7.004;2023-11-21T08:10:47;26.35;;;15.45;;
52564;SDS011;38460;53.106;7.004;2023-11-21T08:13:13;26.90;;;16.02;;
52564;SDS011;38460;53.106;7.004;2023-11-21T08:15:42;29.38;;;15.70;;
52564;SDS011;38460;53.106;7.004;2023-11-21T08:18:11;27.60;;;16.48;;
52564;SDS011;38460;53.106;7.004;2023-11-21T08:20:38;29.23;;;17.63;;
52564;SDS011;38460;53.106;7.004;2023-11-21T08:23:05;31.65;;;17.98;;
52564;SDS011;38460;53.106;7.004;2023-11-21T08:25:31;27.33;;;15.85;;
52564;SDS011;38460;53.106;7.004;2023-11-21T08:27:58;24.70;;;13.95;;
52564;SDS011;38460;53.106;7.004;2023-11-21T08:30:24;27.23;;;15.70;;
52564;SDS011;38460;53.106;7.004;2023-11-21T08:32:50;24.75;;;15.20;;
52564;SDS011;38460;53.106;7.004;2023-11-21T08:35:19;25.10;;;14.65;;
52564;SDS011;38460;53.106;7.004;2023-11-21T08:37:44;25.33;;;15.02;;
52564;SDS011;38460;53.106;7.004;2023-11-21T08:40:10;24.10;;;13.77;;
52564;SDS011;38460;53.106;7.004;2023-11-21T08:42:41;25.02;;;13.63;;
52564;SDS011;38460;53.106;7.004;2023-11-21T08:45:08;22.85;;;13.32;;
52564;SDS011;38460;53.106;7.004;2023-11-21T08:47:34;23.08;;;13.73;;
52564;SDS011;38460;53.106;7.004;2023-11-21T08:50:01;24.85;;;13.85;;
52564;SDS011;38460;53.106;7.004;2023-11-21T08:52:27;22.50;;;13.43;;
52564;SDS011;38460;53.106;7.004;2023-11-21T08:54:53;22.05;;;12.80;;
52564;SDS011;38460;53.106;7.004;2023-11-21T08:57:24;24.48;;;13.32;;
52564;SDS011;38460;53.106;7.004;2023-11-21T08:59:50;20.38;;;12.10;;
52564;SDS011;38460;53.106;7.004;2023-11-21T09:02:21;19.15;;;11.65;;
52564;SDS011;38460;53.106;7.004;2023-11-21T09:04:50;20.67;;;13.18;;
52564;SDS011;38460;53.106;7.004;2023-11-21T09:07:17;19.42;;;12.10;;
52564;SDS011;38460;53.106;7.004;2023-11-21T09:09:46;24.80;;;12.18;;
52564;SDS011;38460;53.106;7.004;2023-11-21T09:12:14;18.55;;;11.43;;
52564;SDS011;38460;53.106;7.004;2023-11-21T09:14:39;18.95;;;10.35;;
52564;SDS011;38460;53.106;7.004;2023-11-21T09:17:05;17.48;;;10.70;;
52564;SDS011;38460;53.106;7.004;2023-11-21T09:19:39;18.05;;;9.98;;
52564;SDS011;38460;53.106;7.004;2023-11-21T09:22:05;16.17;;;8.52;;
52564;SDS011;38460;53.106;7.004;2023-11-21T09:24:31;18.17;;;9.98;;
52564;SDS011;38460;53.106;7.004;2023-11-21T09:26:57;16.23;;;9.90;;
52564;SDS011;38460;53.106;7.004;2023-11-21T09:29:23;14.23;;;9.05;;
52564;SDS011;38460;53.106;7.004;2023-11-21T09:31:49;15.30;;;9.18;;
52564;SDS011;38460;53.106;7.004;2023-11-21T09:34:17;14.45;;;8.77;;
52564;SDS011;38460;53.106;7.004;2023-11-21T09:36:47;14.95;;;8.95;;
52564;SDS011;38460;53.106;7.004;2023-11-21T09:39:13;12.30;;;8.68;;
52564;SDS011;38460;53.106;7.004;2023-11-21T09:41:50;11.93;;;7.63;;
52564;SDS011;38460;53.106;7.004;2023-11-21T09:44:20;13.05;;;8.38;;
52564;SDS011;38460;53.106;7.004;2023-11-21T09:46:54;13.02;;;7.75;;
52564;SDS011;38460;53.106;7.004;2023-11-21T09:49:24;10.43;;;7.20;;
52564;SDS011;38460;53.106;7.004;2023-11-21T09:51:53;10.73;;;6.78;;
52564;SDS011;38460;53.106;7.004;2023-11-21T09:54:22;14.30;;;7.28;;
52564;SDS011;38460;53.106;7.004;2023-11-21T09:56:48;11.75;;;7.32;;
52564;SDS011;38460;53.106;7.004;2023-11-21T09:59:15;11.68;;;6.82;;
52564;SDS011;38460;53.106;7.004;2023-11-21T10:01:41;12.40;;;7.00;;
52564;SDS011;38460;53.106;7.004;2023-11-21T10:04:08;10.80;;;6.68;;
52564;SDS011;38460;53.106;7.004;2023-11-21T10:06:40;10.65;;;6.38;;
52564;SDS011;38460;53.106;7.004;2023-11-21T10:09:13;10.73;;;6.18;;
52564;SDS011;38460;53.106;7.004;2023-11-21T10:11:41;10.80;;;6.78;;
52564;SDS011;38460;53.106;7.004;2023-11-21T10:14:11;13.23;;;7.20;;
52564;SDS011;38460;53.106;7.004;2023-11-21T10:16:39;10.73;;;6.32;;
52564;SDS011;38460;53.106;7.004;2023-11-21T10:19:06;12.07;;;7.40;;
52564;SDS011;38460;53.106;7.004;2023-11-21T10:21:35;9.82;;;6.90;;
52564;SDS011;38460;53.106;7.004;2023-11-21T10:24:02;10.20;;;6.60;;
52564;SDS011;38460;53.106;7.004;2023-11-21T10:26:28;10.88;;;6.93;;
52564;SDS011;38460;53.106;7.004;2023-11-21T10:28:57;10.57;;;7.10;;
52564;SDS011;38460;53.106;7.004;2023-11-21T10:31:26;11.55;;;6.65;;
52564;SDS011;38460;53.106;7.004;2023-11-21T10:33:52;12.35;;;7.57;;
52564;SDS011;38460;53.106;7.004;2023-11-21T10:36:28;10.68;;;7.88;;
52564;SDS011;38460;53.106;7.004;2023-11-21T10:38:54;11.40;;;6.82;;
52564;SDS011;38460;53.106;7.004;2023-11-21T10:41:20;10.63;;;6.28;;
52564;SDS011;38460;53.106;7.004;2023-11-21T10:43:46;9.95;;;6.90;;
52564;SDS011;38460;53.106;7.004;2023-11-21T10:46:13;9.70;;;6.45;;
52564;SDS011;38460;53.106;7.004;2023-11-21T10:48:40;12.15;;;7.40;;
52564;SDS011;38460;53.106;7.004;2023-11-21T10:51:07;10.45;;;6.53;;
52564;SDS011;38460;53.106;7.004;2023-11-21T10:53:38;10.43;;;7.28;;
52564;SDS011;38460;53.106;7.004;2023-11-21T10:56:10;10.60;;;6.72;;
52564;SDS011;38460;53.106;7.004;2023-11-21T10:58:45;10.43;;;7.03;;
52564;SDS011;38460;53.106;7.004;2023-11-21T11:01:11;9.38;;;6.60;;
52564;SDS011;38460;53.106;7.004;2023-11-21T11:03:39;11.95;;;6.78;;
52564;SDS011;38460;53.106;7.004;2023-11-21T11:06:06;10.98;;;6.43;;
52564;SDS011;38460;53.106;7.004;2023-11-21T11:08:37;10.02;;;7.05;;
52564;SDS011;38460;53.106;7.004;2023-11-21T11:11:07;9.98;;;6.93;;
52564;SDS011;38460;53.106;7.004;2023-11-21T11:13:33;9.43;;;6.63;;
52564;SDS011;38460;53.106;7.004;2023-11-21T11:15:59;10.98;;;6.60;;
52564;SDS011;38460;53.106;7.004;2023-11-21T11:18:32;11.90;;;7.13;;
52564;SDS011;38460;53.106;7.004;2023-11-21T11:21:20;14.45;;;6.80;;
52564;SDS011;38460;53.106;7.004;2023-11-21T11:32:07;9.73;;;6.07;;
52564;SDS011;38460;53.106;7.004;2023-11-21T11:34:44;9.82;;;6.22;;
52564;SDS011;38460;53.106;7.004;2023-11-21T11:37:15;10.25;;;6.43;;
52564;SDS011;38460;53.106;7.004;2023-11-21T11:39:42;10.35;;;7.35;;
52564;SDS011;38460;53.106;7.004;2023-11-21T11:42:14;11.02;;;6.80;;
52564;SDS011;38460;53.106;7.004;2023-11-21T11:47:19;10.40;;;7.25;;
52564;SDS011;38460;53.106;7.004;2023-11-21T11:50:11;10.38;;;6.35;;
52564;SDS011;38460;53.106;7.004;2023-11-21T11:55:18;11.23;;;6.85;;
52564;SDS011;38460;53.106;7.004;2023-11-21T11:57:48;10.73;;;6.40;;
52564;SDS011;38460;53.106;7.004;2023-11-21T12:02:51;9.95;;;6.75;;
52564;SDS011;38460;53.106;7.004;2023-11-21T12:05:19;9.40;;;6.60;;
52564;SDS011;38460;53.106;7.004;2023-11-21T12:07:47;10.48;;;6.78;;
52564;SDS011;38460;53.106;7.004;2023-11-21T12:10:23;11.98;;;6.53;;
52564;SDS011;38460;53.106;7.004;2023-11-21T12:12:54;9.20;;;6.38;;
52564;SDS011;38460;53.106;7.004;2023-11-21T12:15:35;8.88;;;5.95;;
52564;SDS011;38460;53.106;7.004;2023-11-21T12:18:01;10.38;;;6.40;;
52564;SDS011;38460;53.106;7.004;2023-11-21T12:20:28;9.05;;;5.97;;
52564;SDS011;38460;53.106;7.004;2023-11-21T12:22:59;7.55;;;5.63;;
52564;SDS011;38460;53.106;7.004;2023-11-21T12:25:26;9.93;;;6.40;;
52564;SDS011;38460;53.106;7.004;2023-11-21T12:27:57;7.43;;;5.20;;
52564;SDS011;38460;53.106;7.004;2023-11-21T12:30:24;10.32;;;5.88;;
52564;SDS011;38460;53.106;7.004;2023-11-21T12:32:56;8.93;;;5.75;;
52564;SDS011;38460;53.106;7.004;2023-11-21T12:35:26;8.02;;;5.50;;
52564;SDS011;38460;53.106;7.004;2023-11-21T12:37:54;9.40;;;6.50;;
52564;SDS011;38460;53.106;7.004;2023-11-21T12:40:22;9.25;;;6.18;;
52564;SDS011;38460;53.106;7.004;2023-11-21T12:42:50;9.55;;;6.78;;
52564;SDS011;38460;53.106;7.004;2023-11-21T12:45:20;9.82;;;6.13;;
52564;SDS011;38460;53.106;7.004;2023-11-21T12:47:51;10.52;;;6.78;;
52564;SDS011;38460;53.106;7.004;2023-11-21T12:50:20;10.68;;;6.13;;
52564;SDS011;38460;53.106;7.004;2023-11-21T12:52:53;10.13;;;6.40;;
52564;SDS011;38460;53.106;7.004;2023-11-21T12:55:23;9.30;;;6.40;;
52564;SDS011;38460;53.106;7.004;2023-11-21T12:57:49;9.02;;;5.72;;
52564;SDS011;38460;53.106;7.004;2023-11-21T13:00:33;8.45;;;5.72;;
52564;SDS011;38460;53.106;7.004;2023-11-21T13:03:03;9.18;;;5.97;;
52564;SDS011;38460;53.106;7.004;2023-11-21T13:05:31;9.30;;;5.55;;
52564;SDS011;38460;53.106;7.004;2023-11-21T13:08:04;8.60;;;6.07;;
52564;SDS011;38460;53.106;7.004;2023-11-21T13:10:35;9.70;;;5.68;;
52564;SDS011;38460;53.106;7.004;2023-11-21T13:13:02;10.25;;;5.72;;
52564;SDS011;38460;53.106;7.004;2023-11-21T13:15:30;8.27;;;5.35;;
52564;SDS011;38460;53.106;7.004;2023-11-21T13:17:58;10.93;;;5.93;;
52564;SDS011;38460;53.106;7.004;2023-11-21T13:20:24;9.88;;;5.93;;
52564;SDS011;38460;53.106;7.004;2023-11-21T13:22:51;9.70;;;6.10;;
52564;SDS011;38460;53.106;7.004;2023-11-21T13:25:26;10.05;;;5.85;;
52564;SDS011;38460;53.106;7.004;2023-11-21T13:27:55;7.97;;;5.22;;
52564;SDS011;38460;53.106;7.004;2023-11-21T13:30:22;11.23;;;6.20;;
52564;SDS011;38460;53.106;7.004;2023-11-21T13:32:52;10.93;;;5.75;;
52564;SDS011;38460;53.106;7.004;2023-11-21T13:35:22;7.65;;;5.45;;
52564;SDS011;38460;53.106;7.004;2023-11-21T13:37:56;7.20;;;5.07;;
52564;SDS011;38460;53.106;7.004;2023-11-21T13:40:25;9.57;;;5.55;;
52564;SDS011;38460;53.106;7.004;2023-11-21T13:42:54;8.02;;;5.43;;
52564;SDS011;38460;53.106;7.004;2023-11-21T13:45:24;9.40;;;6.13;;
52564;SDS011;38460;53.106;7.004;2023-11-21T13:47:52;7.60;;;5.57;;
52564;SDS011;38460;53.106;7.004;2023-11-21T13:50:22;10.15;;;5.97;;
52564;SDS011;38460;53.106;7.004;2023-11-21T13:52:54;9.35;;;6.25;;
52564;SDS011;38460;53.106;7.004;2023-11-21T13:55:19;10.55;;;6.15;;
52564;SDS011;38460;53.106;7.004;2023-11-21T13:57:49;8.30;;;5.80;;
52564;SDS011;38460;53.106;7.004;2023-11-21T14:00:17;7.97;;;5.50;;
52564;SDS011;38460;53.106;7.004;2023-11-21T14:03:02;9.50;;;5.80;;
52564;SDS011;38460;53.106;7.004;2023-11-21T14:05:31;12.27;;;5.35;;
52564;SDS011;38460;53.106;7.004;2023-11-21T14:07:59;7.45;;;4.97;;
52564;SDS011;38460;53.106;7.004;2023-11-21T14:10:30;9.20;;;5.05;;
52564;SDS011;38460;53.106;7.004;2023-11-21T14:13:08;7.32;;;4.72;;
52564;SDS011;38460;53.106;7.004;2023-11-21T14:15:40;12.55;;;6.28;;
52564;SDS011;38460;53.106;7.004;2023-11-21T14:18:08;10.93;;;4.80;;
52564;SDS011;38460;53.106;7.004;2023-11-21T14:20:42;8.20;;;4.82;;
52564;SDS011;38460;53.106;7.004;2023-11-21T14:23:09;7.80;;;5.70;;
52564;SDS011;38460;53.106;7.004;2023-11-21T14:25:35;6.85;;;5.05;;
52564;SDS011;38460;53.106;7.004;2023-11-21T14:28:03;9.38;;;4.43;;
52564;SDS011;38460;53.106;7.004;2023-11-21T14:30:30;8.27;;;5.10;;
52564;SDS011;38460;53.106;7.004;2023-11-21T14:32:58;7.22;;;5.30;;
52564;SDS011;38460;53.106;7.004;2023-11-21T14:35:24;9.20;;;4.97;;
52564;SDS011;38460;53.106;7.004;2023-11-21T14:37:51;9.27;;;6.22;;
52564;SDS011;38460;53.106;7.004;2023-11-21T14:40:17;8.25;;;5.45;;
52564;SDS011;38460;53.106;7.004;2023-11-21T14:42:47;8.80;;;5.63;;
52564;SDS011;38460;53.106;7.004;2023-11-21T14:45:13;9.73;;;4.95;;
52564;SDS011;38460;53.106;7.004;2023-11-21T14:47:44;8.77;;;4.55;;